Time;durP1;ratioP1;P1;durP2;ratioP2;P2;SDS_P1;SDS_P2;PMS_P1;PMS_P2;Temp;Humidity;BMP_temperature;BMP_pressure;BME280_temperature;BME280_humidity;BME280_pressure;Samples;Min_cycle;Max_cycle;Signal;HPM_P1;HPM_P2
2023/02/26 00:00:59;;;;;;;6.88;2.08;;;0.30;99.90;;;;;;5103891;28;20552;-62
2023/02/26 00:03:26;;;;;;;5.57;2.20;;;0.10;1.00;;;;;;5103754;28;20799;-63
2023/02/26 00:05:53;;;;;;;6.67;2.40;;;0.10;99.90;;;;;;5106941;28;20404;-62
2023/02/26 00:08:19;;;;;;;6.30;2.20;;;0.20;99.90;;;;;;5103082;28;20413;-63
2023/02/26 00:10:47;;;;;;;3.95;2.20;;;0.20;99.90;;;;;;5109067;28;20408;-64
2023/02/26 00:13:16;;;;;;;7.30;2.30;;;0.10;99.90;;;;;;5114617;28;20576;-65
2023/02/26 00:15:43;;;;;;;6.53;2.42;;;0.10;1.00;;;;;;5108122;28;20422;-64
2023/02/26 00:18:15;;;;;;;6.93;2.23;;;0.10;1.00;;;;;;5103284;28;20491;-64
2023/02/26 00:20:43;;;;;;;3.75;1.92;;;0.10;1.00;;;;;;5100587;28;20803;-62
2023/02/26 00:23:13;;;;;;;4.82;2.03;;;0.10;1.00;;;;;;5102272;28;20494;-63
2023/02/26 00:25:39;;;;;;;8.00;2.42;;;0.20;39.70;;;;;;5103857;28;20404;-63
2023/02/26 00:28:07;;;;;;;4.68;2.10;;;0.20;46.30;;;;;;5104775;28;20801;-63
2023/02/26 00:30:36;;;;;;;5.95;2.10;;;0.10;21.90;;;;;;5099217;28;20455;-62
2023/02/26 00:33:04;;;;;;;5.78;1.92;;;0.10;89.70;;;;;;5097410;28;20956;-63
2023/02/26 00:35:31;;;;;;;4.72;2.20;;;0.00;90.80;;;;;;5102119;28;20509;-64
2023/02/26 00:38:03;;;;;;;6.43;1.95;;;0.00;99.90;;;;;;5099817;28;20557;-64
2023/02/26 00:40:41;;;;;;;9.23;2.08;;;0.00;99.90;;;;;;5102012;28;21068;-64
2023/02/26 00:43:13;;;;;;;6.90;1.90;;;-0.10;99.90;;;;;;5101745;28;20451;-64
2023/02/26 00:45:45;;;;;;;6.72;1.92;;;-0.20;99.90;;;;;;5103101;28;20465;-62
2023/02/26 00:48:33;;;;;;;5.43;2.25;;;-0.30;1.00;;;;;;5105011;28;20948;-62
2023/02/26 00:51:08;;;;;;;7.38;2.25;;;-0.30;1.00;;;;;;5100596;28;20412;-62
2023/02/26 00:53:44;;;;;;;7.90;1.85;;;-0.30;1.00;;;;;;5104678;28;20424;-62
2023/02/26 00:56:11;;;;;;;6.75;2.03;;;-0.20;1.00;;;;;;5100932;28;20467;-62
2023/02/26 00:58:37;;;;;;;4.18;1.80;;;-0.20;1.00;;;;;;5104194;28;20473;-63
2023/02/26 01:01:05;;;;;;;4.78;2.20;;;-0.10;1.00;;;;;;5104242;28;20443;-63
2023/02/26 01:03:33;;;;;;;4.45;1.52;;;0.00;1.00;;;;;;5104376;28;20470;-62
2023/02/26 01:06:00;;;;;;;3.30;1.40;;;0.00;1.00;;;;;;5102925;28;20479;-62
2023/02/26 01:08:32;;;;;;;3.70;1.50;;;0.00;1.00;;;;;;5101623;28;20494;-62
2023/02/26 01:11:00;;;;;;;5.85;1.70;;;0.00;1.00;;;;;;5099657;28;20433;-62
2023/02/26 01:13:26;;;;;;;4.47;1.45;;;0.10;1.00;;;;;;5101857;28;20426;-63
2023/02/26 01:16:02;;;;;;;4.78;1.95;;;0.00;1.00;;;;;;5103919;28;20469;-63
2023/02/26 01:18:38;;;;;;;3.67;1.60;;;0.10;1.00;;;;;;5105627;28;20477;-63
2023/02/26 01:21:08;;;;;;;5.35;1.80;;;0.20;1.00;;;;;;5102474;28;20445;-61
2023/02/26 01:23:40;;;;;;;5.40;1.80;;;0.20;99.90;;;;;;5102269;28;20414;-63
2023/02/26 01:26:15;;;;;;;6.45;1.60;;;0.30;99.90;;;;;;5105396;28;20407;-62
2023/02/26 01:28:42;;;;;;;3.13;1.25;;;0.20;99.90;;;;;;5102967;28;20413;-63
2023/02/26 01:31:22;;;;;;;3.42;1.60;;;0.20;99.90;;;;;;5101115;28;20796;-63
2023/02/26 01:33:55;;;;;;;4.18;1.67;;;0.10;99.90;;;;;;5101156;28;20479;-62
2023/02/26 01:36:24;;;;;;;3.40;1.50;;;0.20;99.90;;;;;;5100001;28;20410;-63
2023/02/26 01:38:57;;;;;;;5.75;1.50;;;0.20;99.90;;;;;;5101013;28;20459;-63
2023/02/26 01:41:31;;;;;;;5.95;1.80;;;0.20;99.90;;;;;;5102124;28;20408;-62
2023/02/26 01:44:06;;;;;;;3.33;1.20;;;0.20;99.90;;;;;;5097427;28;20479;-63
2023/02/26 01:46:39;;;;;;;3.58;1.40;;;0.10;99.90;;;;;;5100756;28;20488;-63
2023/02/26 01:49:13;;;;;;;3.67;1.50;;;0.00;99.90;;;;;;5101661;28;20894;-62
2023/02/26 01:51:46;;;;;;;2.90;1.10;;;0.10;99.90;;;;;;5100923;28;20789;-61
2023/02/26 01:54:13;;;;;;;4.10;1.48;;;0.10;99.90;;;;;;5100796;28;20406;-62
2023/02/26 01:56:41;;;;;;;4.10;1.33;;;0.20;79.50;;;;;;5097596;28;20405;-62
2023/02/26 01:59:11;;;;;;;3.60;1.50;;;0.20;1.00;;;;;;5101386;28;20762;-62
2023/02/26 02:01:39;;;;;;;4.22;1.50;;;0.10;1.00;;;;;;5096878;28;20743;-62
2023/02/26 02:04:12;;;;;;;3.47;1.40;;;0.10;1.00;;;;;;5101274;28;20485;-63
2023/02/26 02:06:39;;;;;;;3.95;1.40;;;0.00;70.20;;;;;;5097560;28;20474;-63
2023/02/26 02:09:07;;;;;;;3.37;1.50;;;0.00;7.20;;;;;;5100919;28;20467;-62
2023/02/26 02:11:39;;;;;;;3.22;1.30;;;-0.10;78.60;;;;;;5100074;28;20463;-61
2023/02/26 02:14:18;;;;;;;2.30;1.30;;;-0.20;83.70;;;;;;5100770;28;20519;-62
2023/02/26 02:16:52;;;;;;;3.97;1.23;;;-0.20;1.00;;;;;;5096637;28;20780;-62
2023/02/26 02:19:49;;;;;;;4.10;1.40;;;-0.30;79.80;;;;;;5095774;28;20408;-63
2023/02/26 02:22:42;;;;;;;2.28;1.10;;;-0.30;19.40;;;;;;5099736;28;20801;-62
2023/02/26 02:25:28;;;;;;;4.43;1.45;;;-0.30;1.00;;;;;;5089303;28;20473;-63
2023/02/26 02:28:03;;;;;;;2.88;1.38;;;-0.30;1.00;;;;;;5096431;28;20405;-62
2023/02/26 02:30:38;;;;;;;3.47;1.20;;;-0.30;1.00;;;;;;5103696;28;20420;-63
2023/02/26 02:33:12;;;;;;;2.55;1.13;;;-0.30;1.00;;;;;;5101776;28;20424;-61
2023/02/26 02:35:44;;;;;;;7.25;1.10;;;-0.40;99.90;;;;;;5091754;28;20404;-62
2023/02/26 02:38:16;;;;;;;3.80;1.10;;;-0.40;1.00;;;;;;5102511;28;20408;-62
2023/02/26 02:40:47;;;;;;;3.83;1.30;;;-0.40;1.00;;;;;;5101003;28;20409;-62
2023/02/26 02:43:16;;;;;;;2.72;1.13;;;-0.30;1.00;;;;;;5103149;28;20400;-63
2023/02/26 02:45:46;;;;;;;5.47;1.52;;;-0.40;1.00;;;;;;5101255;28;20418;-63
2023/02/26 02:48:18;;;;;;;3.67;1.60;;;-0.40;1.00;;;;;;5100179;28;20912;-63
2023/02/26 02:50:49;;;;;;;4.78;1.38;;;-0.50;1.00;;;;;;5099337;28;20476;-62
2023/02/26 02:53:20;;;;;;;2.67;1.10;;;-0.40;1.00;;;;;;5099963;28;20491;-63
2023/02/26 02:55:54;;;;;;;4.18;1.50;;;-0.50;1.00;;;;;;5100188;28;20830;-63
2023/02/26 02:58:24;;;;;;;3.92;1.67;;;-0.50;3.40;;;;;;5097371;28;20406;-62
2023/02/26 03:00:54;;;;;;;4.88;1.70;;;-0.50;51.40;;;;;;5099645;28;20414;-62
2023/02/26 03:03:29;;;;;;;2.78;1.17;;;-0.30;1.00;;;;;;5101132;28;20396;-63
2023/02/26 03:05:56;;;;;;;3.75;1.40;;;-0.30;1.00;;;;;;5101936;28;20889;-63
2023/02/26 03:08:27;;;;;;;3.55;1.40;;;-0.40;72.00;;;;;;5100431;28;20409;-63
2023/02/26 03:10:53;;;;;;;5.45;1.50;;;-0.40;99.90;;;;;;5099472;28;20414;-62
2023/02/26 03:13:22;;;;;;;4.22;1.20;;;-0.50;99.90;;;;;;5104324;28;20803;-63
2023/02/26 03:15:59;;;;;;;4.72;1.70;;;-0.40;99.90;;;;;;5099462;28;20463;-62
2023/02/26 03:18:40;;;;;;;4.00;1.35;;;-0.40;99.90;;;;;;5100036;28;20466;-63
2023/02/26 03:21:11;;;;;;;6.45;1.50;;;-0.30;99.90;;;;;;5099103;28;20414;-62
2023/02/26 03:23:45;;;;;;;3.30;1.40;;;-0.40;99.90;;;;;;5095336;28;20758;-63
2023/02/26 03:26:16;;;;;;;4.55;1.42;;;-0.30;99.90;;;;;;5114236;28;20408;-63
2023/02/26 03:28:48;;;;;;;5.10;1.73;;;-0.50;99.90;;;;;;5113282;28;20893;-63
2023/02/26 03:31:21;;;;;;;4.38;1.50;;;-0.60;99.90;;;;;;5102037;28;20420;-63
2023/02/26 03:33:56;;;;;;;3.95;1.50;;;-0.60;99.90;;;;;;5101066;28;20492;-62
2023/02/26 03:36:27;;;;;;;5.67;1.67;;;-0.50;99.90;;;;;;5098684;28;20404;-63
2023/02/26 03:38:58;;;;;;;6.45;1.65;;;-0.70;99.90;;;;;;5105701;28;20890;-62
2023/02/26 03:41:30;;;;;;;4.35;1.45;;;-0.40;99.90;;;;;;5104421;28;20418;-63
2023/02/26 03:44:01;;;;;;;3.42;1.65;;;-0.30;99.90;;;;;;5103396;28;20412;-62
2023/02/26 03:46:33;;;;;;;6.97;1.60;;;-0.60;99.90;;;;;;5104307;28;20407;-63
2023/02/26 03:49:06;;;;;;;4.65;1.60;;;-0.80;99.90;;;;;;5105343;28;20415;-62
2023/02/26 03:51:34;;;;;;;3.92;1.55;;;-0.80;99.90;;;;;;5105352;28;20412;-62
2023/02/26 03:54:06;;;;;;;7.07;1.60;;;-0.80;99.90;;;;;;5099628;28;20421;-63
2023/02/26 03:56:36;;;;;;;4.50;1.70;;;-0.70;99.90;;;;;;5103102;28;20982;-61
2023/02/26 03:59:03;;;;;;;5.22;1.60;;;-0.70;99.90;;;;;;5100233;28;20405;-61
2023/02/26 04:01:34;;;;;;;5.28;1.60;;;-0.70;99.90;;;;;;5103117;28;20402;-62
2023/02/26 04:04:08;;;;;;;4.10;1.50;;;-0.80;99.90;;;;;;5099841;28;20406;-62
2023/02/26 04:06:36;;;;;;;4.80;1.70;;;-0.80;99.90;;;;;;5102376;28;20466;-62
2023/02/26 04:09:03;;;;;;;6.40;1.88;;;-0.90;99.90;;;;;;5104421;28;20412;-63
2023/02/26 04:11:31;;;;;;;5.80;1.83;;;-1.00;1.00;;;;;;5105262;28;20498;-62
2023/02/26 04:13:58;;;;;;;4.30;1.50;;;-1.00;1.00;;;;;;5099413;28;20483;-62
2023/02/26 04:16:24;;;;;;;3.97;1.60;;;-1.00;1.00;;;;;;5106515;28;20437;-62
2023/02/26 04:18:51;;;;;;;3.42;1.50;;;-1.10;1.00;;;;;;5105243;28;20886;-62
2023/02/26 04:21:21;;;;;;;6.10;1.48;;;-1.20;1.00;;;;;;5101895;28;20752;-64
2023/02/26 04:23:48;;;;;;;6.07;1.60;;;-1.10;1.00;;;;;;5105103;28;20490;-63
2023/02/26 04:26:15;;;;;;;7.82;1.70;;;-1.10;1.00;;;;;;5102871;28;20471;-65
2023/02/26 04:28:42;;;;;;;5.00;1.52;;;-1.10;1.00;;;;;;5102670;28;20474;-64
2023/02/26 04:31:09;;;;;;;4.23;1.60;;;-1.10;1.00;;;;;;5104672;28;20404;-64
2023/02/26 04:33:35;;;;;;;2.50;1.50;;;-1.10;1.00;;;;;;5103583;28;20418;-63
2023/02/26 04:36:03;;;;;;;4.65;1.80;;;-1.20;1.00;;;;;;5105642;28;20412;-64
2023/02/26 04:38:31;;;;;;;5.40;1.98;;;-1.20;1.00;;;;;;5103023;28;20414;-64
2023/02/26 04:40:58;;;;;;;4.13;1.52;;;-1.20;1.00;;;;;;5102148;28;20815;-64
2023/02/26 04:43:24;;;;;;;4.28;1.40;;;-1.20;1.00;;;;;;5098899;28;20802;-64
2023/02/26 04:45:51;;;;;;;5.40;1.50;;;-1.10;1.00;;;;;;5102015;28;20972;-64
2023/02/26 04:48:18;;;;;;;3.63;1.58;;;-1.20;1.00;;;;;;5104860;28;20414;-63
2023/02/26 04:50:45;;;;;;;5.80;1.83;;;-1.30;1.00;;;;;;5104726;28;20420;-64
2023/02/26 04:53:12;;;;;;;3.90;1.30;;;-1.10;1.00;;;;;;5104776;28;20432;-64
2023/02/26 04:55:40;;;;;;;3.50;1.38;;;-1.20;1.00;;;;;;5098442;28;20402;-64
2023/02/26 04:58:08;;;;;;;3.63;1.55;;;-1.20;1.00;;;;;;5102569;28;20417;-64
2023/02/26 05:00:35;;;;;;;4.80;1.50;;;-1.20;1.00;;;;;;5101288;28;20761;-64
2023/02/26 05:03:01;;;;;;;3.78;1.48;;;-1.20;1.00;;;;;;5102994;28;20400;-64
2023/02/26 05:05:28;;;;;;;3.55;1.48;;;-1.20;1.00;;;;;;5104437;28;20460;-63
2023/02/26 05:07:55;;;;;;;4.57;1.55;;;-1.40;1.00;;;;;;5101780;28;20463;-64
2023/02/26 05:10:22;;;;;;;6.22;1.70;;;-1.40;1.00;;;;;;5102176;28;20452;-64
2023/02/26 05:12:51;;;;;;;3.08;1.35;;;-1.50;1.00;;;;;;5103830;28;20408;-64
2023/02/26 05:15:17;;;;;;;6.05;1.70;;;-1.50;1.00;;;;;;5103059;28;20459;-64
2023/02/26 05:17:44;;;;;;;5.90;1.63;;;-1.40;1.00;;;;;;5098297;28;20413;-63
2023/02/26 05:20:11;;;;;;;3.40;1.52;;;-1.40;1.00;;;;;;5103411;28;20465;-63
2023/02/26 05:22:39;;;;;;;5.28;1.67;;;-1.50;1.00;;;;;;5103730;28;20521;-64
2023/02/26 05:25:06;;;;;;;2.60;1.50;;;-1.40;1.00;;;;;;5097786;28;20406;-64
2023/02/26 05:27:34;;;;;;;4.35;1.50;;;-1.50;1.00;;;;;;5102045;28;20456;-64
2023/02/26 05:30:02;;;;;;;7.13;1.70;;;-1.50;1.00;;;;;;5103720;28;20413;-64
2023/02/26 05:32:29;;;;;;;6.47;1.45;;;-1.50;1.00;;;;;;5103783;28;20605;-63
2023/02/26 05:34:56;;;;;;;3.65;1.48;;;-1.60;1.00;;;;;;5103751;28;20817;-64
2023/02/26 05:37:22;;;;;;;5.53;1.80;;;-1.60;1.00;;;;;;5099461;28;20477;-64
2023/02/26 05:39:49;;;;;;;4.75;1.52;;;-1.50;1.00;;;;;;5102971;28;20477;-64
2023/02/26 05:42:16;;;;;;;4.20;1.42;;;-1.50;1.00;;;;;;5100803;28;20780;-64
2023/02/26 05:44:42;;;;;;;3.90;1.42;;;-1.50;1.00;;;;;;5102522;28;20534;-64
2023/02/26 05:47:11;;;;;;;6.22;1.75;;;-1.60;1.00;;;;;;5103294;28;20400;-64
2023/02/26 05:49:37;;;;;;;5.60;1.73;;;-1.60;1.00;;;;;;5101201;28;20493;-64
2023/02/26 05:52:04;;;;;;;3.77;1.70;;;-1.60;1.00;;;;;;5101263;28;20405;-64
2023/02/26 05:54:31;;;;;;;3.70;1.70;;;-1.60;1.00;;;;;;5103396;28;20416;-64
2023/02/26 05:56:58;;;;;;;4.65;1.65;;;-1.60;1.00;;;;;;5102035;28;20463;-63
2023/02/26 05:59:25;;;;;;;3.65;1.67;;;-1.60;1.00;;;;;;5100633;28;20412;-64
2023/02/26 06:01:51;;;;;;;6.55;1.98;;;-1.60;1.00;;;;;;5102407;28;20898;-63
2023/02/26 06:04:20;;;;;;;5.20;1.90;;;-1.70;1.00;;;;;;5102733;28;20408;-64
2023/02/26 06:06:46;;;;;;;3.75;1.88;;;-1.70;1.00;;;;;;5103120;28;20944;-64
2023/02/26 06:09:13;;;;;;;8.17;2.10;;;-1.70;1.00;;;;;;5103213;28;20441;-64
2023/02/26 06:11:40;;;;;;;4.18;1.83;;;-1.70;1.00;;;;;;5104477;28;20907;-64
2023/02/26 06:14:06;;;;;;;5.93;1.92;;;-1.80;1.00;;;;;;5105396;28;20914;-64
2023/02/26 06:16:34;;;;;;;3.78;1.70;;;-1.80;1.00;;;;;;5102096;28;20439;-64
2023/02/26 06:19:01;;;;;;;4.45;1.80;;;-1.80;1.00;;;;;;5100634;28;20499;-64
2023/02/26 06:21:30;;;;;;;3.67;1.50;;;-1.90;1.00;;;;;;5105509;28;20420;-63
2023/02/26 06:23:57;;;;;;;5.82;2.03;;;-1.90;1.00;;;;;;5104996;28;20408;-63
2023/02/26 06:26:24;;;;;;;4.22;1.52;;;-1.90;1.00;;;;;;5102772;28;20417;-64
2023/02/26 06:28:50;;;;;;;5.60;1.70;;;-1.80;1.00;;;;;;5101812;28;20417;-63
2023/02/26 06:31:17;;;;;;;3.80;1.55;;;-1.90;1.00;;;;;;5105648;28;20441;-64
2023/02/26 06:33:44;;;;;;;2.70;1.50;;;-1.90;1.00;;;;;;5115532;28;20480;-64
2023/02/26 06:36:10;;;;;;;4.97;1.73;;;-1.90;1.00;;;;;;5114276;28;20442;-63
2023/02/26 06:38:38;;;;;;;5.03;2.00;;;-1.90;1.00;;;;;;5110719;28;20402;-64
2023/02/26 06:41:05;;;;;;;4.28;1.70;;;-1.80;1.00;;;;;;5103820;28;20416;-64
2023/02/26 06:43:32;;;;;;;3.83;1.60;;;-1.90;1.00;;;;;;5100979;28;20753;-64
2023/02/26 06:45:59;;;;;;;6.53;1.98;;;-1.90;1.00;;;;;;5100921;28;20811;-64
2023/02/26 06:48:26;;;;;;;4.10;1.65;;;-1.90;1.00;;;;;;5103177;28;20414;-64
2023/02/26 06:50:53;;;;;;;3.93;1.60;;;-1.90;1.00;;;;;;5100484;28;20443;-64
2023/02/26 06:53:20;;;;;;;3.53;1.50;;;-1.90;1.00;;;;;;5099617;28;20942;-64
2023/02/26 06:55:51;;;;;;;5.38;2.10;;;-1.90;1.00;;;;;;5102213;28;20473;-64
2023/02/26 06:58:18;;;;;;;3.90;1.70;;;-1.90;1.00;;;;;;5102563;28;20476;-64
2023/02/26 07:00:45;;;;;;;7.97;1.95;;;-1.90;1.00;;;;;;5100181;28;20413;-63
2023/02/26 07:03:14;;;;;;;3.65;1.45;;;-1.90;1.00;;;;;;5099760;28;20484;-63
2023/02/26 07:05:41;;;;;;;3.05;1.27;;;-1.90;1.00;;;;;;5102168;28;20408;-64
2023/02/26 07:08:08;;;;;;;5.80;1.50;;;-1.80;1.00;;;;;;5101820;28;21223;-64
2023/02/26 07:10:36;;;;;;;4.03;1.70;;;-1.90;1.00;;;;;;5101950;28;20411;-64
2023/02/26 07:13:04;;;;;;;3.70;1.70;;;-1.90;1.00;;;;;;5100671;28;20409;-64
2023/02/26 07:15:31;;;;;;;3.33;1.60;;;-1.90;1.00;;;;;;5099281;28;20483;-63
2023/02/26 07:17:58;;;;;;;4.30;1.60;;;-1.90;1.00;;;;;;5102109;28;20408;-63
2023/02/26 07:20:25;;;;;;;3.33;1.42;;;-1.90;1.00;;;;;;5098732;28;20418;-62
2023/02/26 07:22:52;;;;;;;3.33;1.50;;;-1.80;1.00;;;;;;5102457;28;20429;-64
2023/02/26 07:25:19;;;;;;;3.65;1.70;;;-1.80;1.00;;;;;;5100611;28;20451;-63
2023/02/26 07:27:46;;;;;;;2.80;1.30;;;-1.80;1.00;;;;;;5097276;28;20412;-63
2023/02/26 07:30:15;;;;;;;3.47;1.50;;;-1.80;1.00;;;;;;5101274;28;20461;-64
2023/02/26 07:32:41;;;;;;;8.68;1.80;;;-1.80;1.00;;;;;;5101618;28;20416;-63
2023/02/26 07:35:09;;;;;;;4.60;2.25;;;-1.80;1.00;;;;;;5095555;28;20455;-63
2023/02/26 07:37:35;;;;;;;5.03;2.00;;;-1.80;1.00;;;;;;5099944;28;20838;-62
2023/02/26 07:40:03;;;;;;;5.30;2.20;;;-1.80;1.00;;;;;;5101592;28;20412;-63
2023/02/26 07:42:29;;;;;;;5.03;1.70;;;-1.80;1.00;;;;;;5100132;28;20410;-64
2023/02/26 07:44:56;;;;;;;4.47;1.60;;;-1.80;1.00;;;;;;5099268;28;20451;-63
2023/02/26 07:47:24;;;;;;;6.45;1.90;;;-1.70;1.00;;;;;;5095425;28;20465;-64
2023/02/26 07:49:51;;;;;;;6.00;1.90;;;-1.70;1.00;;;;;;5099148;28;20873;-63
2023/02/26 07:52:18;;;;;;;4.47;1.70;;;-1.60;1.00;;;;;;5099284;28;20832;-63
2023/02/26 07:54:45;;;;;;;4.75;1.85;;;-1.50;1.00;;;;;;5100417;28;20428;-63
2023/02/26 07:57:11;;;;;;;7.50;2.15;;;-1.60;1.00;;;;;;5101539;28;20412;-64
2023/02/26 07:59:38;;;;;;;4.93;1.60;;;-1.60;1.00;;;;;;5099099;28;20405;-64
2023/02/26 08:02:05;;;;;;;3.92;1.90;;;-1.40;1.00;;;;;;5099609;28;20409;-64
2023/02/26 08:04:33;;;;;;;5.28;1.80;;;-1.30;1.00;;;;;;5101443;28;20412;-64
2023/02/26 08:07:00;;;;;;;4.95;1.88;;;-1.20;1.00;;;;;;5100135;28;20417;-64
2023/02/26 08:09:27;;;;;;;5.25;2.05;;;-1.10;1.00;;;;;;5098959;28;20420;-64
2023/02/26 08:11:54;;;;;;;4.47;1.88;;;-1.00;1.00;;;;;;5101075;28;20821;-63
2023/02/26 08:14:20;;;;;;;5.72;1.90;;;-0.90;1.00;;;;;;5100982;28;20852;-64
2023/02/26 08:16:47;;;;;;;4.80;1.80;;;-0.90;1.00;;;;;;5101021;28;20869;-63
2023/02/26 08:19:14;;;;;;;3.40;1.75;;;-0.80;1.00;;;;;;5100137;28;20528;-64
2023/02/26 08:21:42;;;;;;;5.28;1.63;;;-0.70;1.00;;;;;;5103578;28;20420;-64
2023/02/26 08:24:10;;;;;;;6.57;1.75;;;-0.60;1.00;;;;;;5100934;28;20932;-64
2023/02/26 08:26:37;;;;;;;3.03;1.60;;;-0.50;1.00;;;;;;5105636;28;20415;-63
2023/02/26 08:29:05;;;;;;;6.80;2.13;;;-0.50;99.90;;;;;;5098757;28;20818;-64
2023/02/26 08:31:33;;;;;;;4.32;1.75;;;-0.40;99.90;;;;;;5103030;28;20439;-64
2023/02/26 08:34:00;;;;;;;4.70;1.70;;;-0.30;99.90;;;;;;5102071;28;20414;-64
2023/02/26 08:36:27;;;;;;;6.45;2.05;;;-0.20;99.90;;;;;;5103504;28;20408;-64
2023/02/26 08:38:55;;;;;;;6.05;1.67;;;0.00;99.90;;;;;;5104735;28;20408;-62
2023/02/26 08:41:21;;;;;;;3.13;1.63;;;0.00;99.90;;;;;;5106540;28;20946;-63
2023/02/26 08:43:48;;;;;;;4.88;2.40;;;0.10;29.20;;;;;;5102513;28;20415;-64
2023/02/26 08:46:15;;;;;;;3.35;1.58;;;0.20;92.70;;;;;;5101696;28;20410;-64
2023/02/26 08:48:42;;;;;;;3.72;1.20;;;0.20;1.00;;;;;;5104637;28;20417;-63
2023/02/26 08:51:09;;;;;;;3.35;1.50;;;0.00;1.00;;;;;;5101798;28;20412;-64
2023/02/26 08:53:35;;;;;;;4.18;1.58;;;0.20;29.20;;;;;;5102746;28;20463;-64
2023/02/26 08:56:04;;;;;;;2.08;1.15;;;0.30;1.00;;;;;;5102021;28;20429;-63
2023/02/26 08:58:30;;;;;;;2.95;1.33;;;0.40;99.90;;;;;;5104409;28;20813;-64
2023/02/26 09:00:57;;;;;;;3.90;1.75;;;0.40;99.90;;;;;;5103104;28;20409;-64
2023/02/26 09:03:24;;;;;;;5.40;1.70;;;0.50;1.00;;;;;;5101426;28;20500;-64
2023/02/26 09:05:51;;;;;;;5.03;1.80;;;0.50;1.00;;;;;;5100509;28;20404;-65
2023/02/26 09:08:19;;;;;;;4.70;1.60;;;0.60;1.00;;;;;;5103869;28;20775;-64
2023/02/26 09:10:47;;;;;;;2.33;1.25;;;0.60;99.90;;;;;;5098036;28;20519;-65
2023/02/26 09:13:15;;;;;;;3.28;1.20;;;0.70;60.00;;;;;;5105355;28;20412;-64
2023/02/26 09:15:42;;;;;;;3.85;1.50;;;0.70;99.90;;;;;;5100527;28;20494;-65
2023/02/26 09:18:14;;;;;;;5.30;1.42;;;0.70;99.90;;;;;;5098683;28;20414;-63
2023/02/26 09:20:41;;;;;;;3.97;1.60;;;0.80;1.00;;;;;;5102580;28;20421;-63
2023/02/26 09:23:08;;;;;;;4.07;1.35;;;1.10;99.90;;;;;;5096786;28;20434;-63
2023/02/26 09:25:34;;;;;;;3.85;1.55;;;1.30;1.00;;;;;;5099042;28;20414;-63
2023/02/26 09:28:01;;;;;;;3.08;1.20;;;1.40;99.90;;;;;;5105224;28;20449;-62
2023/02/26 09:30:29;;;;;;;3.85;1.38;;;1.50;1.00;;;;;;5101768;28;20405;-62
2023/02/26 09:32:56;;;;;;;3.50;1.40;;;1.20;36.50;;;;;;5103457;28;20399;-63
2023/02/26 09:35:23;;;;;;;5.13;1.80;;;1.30;57.10;;;;;;5102710;28;20421;-62
2023/02/26 09:37:50;;;;;;;1.80;1.02;;;1.50;45.00;;;;;;5100952;28;20406;-63
2023/02/26 09:40:24;;;;;;;3.50;1.40;;;1.50;1.00;;;;;;5101404;28;20879;-63
2023/02/26 09:43:05;;;;;;;3.08;1.52;;;1.60;1.00;;;;;;5102602;28;20469;-63
2023/02/26 09:45:37;;;;;;;3.47;1.47;;;1.60;1.00;;;;;;5103807;28;20541;-64
2023/02/26 09:48:06;;;;;;;1.85;1.10;;;1.80;1.00;;;;;;5101895;28;20496;-63
2023/02/26 09:50:40;;;;;;;4.35;1.00;;;1.90;99.90;;;;;;5101331;28;20414;-63
2023/02/26 09:53:13;;;;;;;3.58;1.10;;;1.70;99.90;;;;;;5103472;28;20413;-63
2023/02/26 09:55:43;;;;;;;3.33;1.40;;;1.70;99.90;;;;;;5100520;28;20421;-64
2023/02/26 09:58:17;;;;;;;4.72;1.50;;;1.80;99.90;;;;;;5100922;28;20410;-65
2023/02/26 10:00:56;;;;;;;3.03;1.30;;;1.80;68.40;;;;;;5098910;28;20409;-64
2023/02/26 10:03:30;;;;;;;2.75;1.20;;;1.80;24.60;;;;;;5097948;28;20413;-64
2023/02/26 10:06:13;;;;;;;3.07;1.20;;;1.90;1.00;;;;;;5100397;28;20409;-64
2023/02/26 10:08:49;;;;;;;2.10;1.17;;;1.70;1.00;;;;;;5100497;28;20418;-63
2023/02/26 10:11:25;;;;;;;2.08;1.05;;;1.60;1.00;;;;;;5100540;28;20805;-64
2023/02/26 10:13:55;;;;;;;2.55;1.15;;;1.50;1.00;;;;;;5095235;28;20911;-63
2023/02/26 10:16:28;;;;;;;2.42;1.30;;;1.50;1.00;;;;;;5100623;28;20424;-63
2023/02/26 10:18:59;;;;;;;1.50;0.90;;;1.60;1.00;;;;;;5099440;28;20902;-64
2023/02/26 10:21:32;;;;;;;4.07;1.15;;;1.60;1.00;;;;;;5100030;28;20533;-63
2023/02/26 10:24:02;;;;;;;3.22;1.00;;;1.50;1.00;;;;;;5104448;28;20408;-64
2023/02/26 10:26:34;;;;;;;2.75;1.30;;;1.40;1.00;;;;;;5097629;28;20467;-64
2023/02/26 10:29:14;;;;;;;2.53;1.33;;;1.50;1.00;;;;;;5100081;28;20410;-65
2023/02/26 10:31:55;;;;;;;2.58;0.90;;;1.40;1.00;;;;;;5100501;28;20421;-65
2023/02/26 10:34:29;;;;;;;4.30;1.10;;;1.40;1.00;;;;;;5100384;28;20461;-65
2023/02/26 10:37:03;;;;;;;2.75;1.30;;;1.40;1.00;;;;;;5097999;28;20496;-64
2023/02/26 10:39:32;;;;;;;2.92;1.08;;;1.30;1.00;;;;;;5099974;28;20413;-65
2023/02/26 10:42:02;;;;;;;3.42;1.25;;;1.40;1.00;;;;;;5101072;28;20408;-64
2023/02/26 10:44:36;;;;;;;1.50;1.00;;;1.30;1.00;;;;;;5101814;28;20879;-64
2023/02/26 10:47:11;;;;;;;2.70;1.10;;;1.40;1.00;;;;;;5101648;28;20408;-64
2023/02/26 10:49:52;;;;;;;2.85;1.10;;;1.40;1.00;;;;;;5099153;28;20959;-65
2023/02/26 10:52:20;;;;;;;2.13;1.15;;;1.20;99.90;;;;;;5096868;28;20513;-64
2023/02/26 10:54:59;;;;;;;2.08;1.15;;;1.30;99.90;;;;;;5103598;28;20415;-67
2023/02/26 10:57:31;;;;;;;2.35;1.17;;;1.20;99.90;;;;;;5099207;28;20404;-65
2023/02/26 10:59:59;;;;;;;1.98;1.10;;;1.40;1.00;;;;;;5096477;28;20518;-65
2023/02/26 11:02:39;;;;;;;3.38;1.38;;;1.40;99.90;;;;;;5085347;28;20412;-65
2023/02/26 11:05:15;;;;;;;3.27;1.30;;;1.60;99.90;;;;;;5097678;28;22392;-66
2023/02/26 11:07:43;;;;;;;5.07;1.20;;;1.60;99.90;;;;;;5094108;28;20934;-66
2023/02/26 11:10:16;;;;;;;1.42;1.10;;;1.80;99.90;;;;;;5099339;28;20918;-67
2023/02/26 11:12:43;;;;;;;2.50;1.10;;;1.80;99.90;;;;;;5097746;28;20518;-65
2023/02/26 11:15:14;;;;;;;3.28;1.13;;;1.90;99.90;;;;;;5100636;28;20912;-65
2023/02/26 11:17:43;;;;;;;2.45;0.98;;;2.20;99.90;;;;;;5099134;28;20463;-65
2023/02/26 11:20:17;;;;;;;3.13;1.00;;;2.50;99.90;;;;;;5099093;28;20786;-63
2023/02/26 11:22:48;;;;;;;2.90;1.20;;;2.30;99.90;;;;;;5097317;28;20406;-64
2023/02/26 11:25:22;;;;;;;2.23;1.10;;;2.10;99.90;;;;;;5098748;28;20956;-63
2023/02/26 11:27:53;;;;;;;3.15;1.10;;;2.20;99.90;;;;;;5099884;28;20428;-62
2023/02/26 11:30:22;;;;;;;2.00;1.10;;;2.00;99.90;;;;;;5095161;28;20406;-62
2023/02/26 11:32:52;;;;;;;3.07;1.20;;;2.30;99.90;;;;;;5099577;28;20414;-65
2023/02/26 11:35:23;;;;;;;3.53;1.00;;;2.60;99.90;;;;;;5095092;28;20426;-63
2023/02/26 11:37:54;;;;;;;3.08;1.27;;;2.60;99.90;;;;;;5099284;28;20413;-64
2023/02/26 11:40:24;;;;;;;2.83;1.30;;;2.50;99.90;;;;;;5096097;28;20485;-64
2023/02/26 11:42:54;;;;;;;2.37;0.90;;;2.70;99.90;;;;;;5098128;28;20418;-64
2023/02/26 11:45:22;;;;;;;2.17;0.90;;;2.50;99.90;;;;;;5095291;28;20465;-65
2023/02/26 11:47:57;;;;;;;3.58;1.27;;;2.50;99.90;;;;;;5100358;28;20412;-65
2023/02/26 11:50:24;;;;;;;3.60;1.20;;;2.50;99.90;;;;;;5095076;28;20408;-65
2023/02/26 11:52:56;;;;;;;3.58;1.10;;;2.30;99.90;;;;;;5100930;28;20404;-65
2023/02/26 11:55:28;;;;;;;1.98;1.00;;;2.40;99.90;;;;;;5101675;28;20421;-64
2023/02/26 11:57:56;;;;;;;2.63;1.10;;;2.50;99.90;;;;;;5106026;28;20408;-64
2023/02/26 12:00:30;;;;;;;2.40;0.97;;;2.50;99.90;;;;;;5105466;28;20780;-64
2023/02/26 12:03:00;;;;;;;1.52;0.80;;;2.50;99.90;;;;;;5102221;28;20410;-63
2023/02/26 12:05:28;;;;;;;4.78;1.30;;;2.40;99.90;;;;;;5103012;28;20402;-63
2023/02/26 12:07:54;;;;;;;2.45;1.20;;;2.30;99.90;;;;;;5104913;28;20411;-66
2023/02/26 12:10:25;;;;;;;3.70;1.20;;;2.20;99.90;;;;;;5105235;28;20419;-62
2023/02/26 12:13:00;;;;;;;2.97;1.30;;;2.20;99.90;;;;;;5101044;28;20974;-63
2023/02/26 12:15:35;;;;;;;3.23;1.20;;;2.30;99.90;;;;;;5104913;28;20494;-61
2023/02/26 12:18:34;;;;;;;2.60;1.03;;;2.30;99.90;;;;;;5100052;28;20900;-60
2023/02/26 12:21:11;;;;;;;1.80;0.80;;;2.50;99.90;;;;;;5097288;28;20416;-60
2023/02/26 12:24:04;;;;;;;1.13;0.93;;;2.50;99.90;;;;;;5102029;28;20875;-61
2023/02/26 12:26:33;;;;;;;2.70;1.10;;;2.50;99.90;;;;;;5097381;28;20409;-61
2023/02/26 12:29:10;;;;;;;2.33;1.13;;;2.50;99.90;;;;;;5104362;28;20408;-61
2023/02/26 12:32:04;;;;;;;2.30;1.17;;;2.70;99.90;;;;;;5106154;28;20415;-60
2023/02/26 12:34:55;;;;;;;4.65;1.33;;;2.70;99.90;;;;;;5099682;28;20890;-61
2023/02/26 12:37:34;;;;;;;2.88;1.00;;;2.50;99.90;;;;;;5109984;28;20792;-64
2023/02/26 12:40:13;;;;;;;4.22;1.13;;;2.80;99.90;;;;;;5102405;28;20413;-63
2023/02/26 12:42:51;;;;;;;1.70;0.95;;;3.00;99.90;;;;;;5102416;28;20402;-62
2023/02/26 12:45:33;;;;;;;3.13;1.05;;;2.80;99.90;;;;;;5101200;28;20409;-61
2023/02/26 12:48:18;;;;;;;1.20;0.70;;;2.90;99.90;;;;;;5101153;28;20412;-61
2023/02/26 12:50:56;;;;;;;1.87;0.90;;;2.70;99.90;;;;;;5101471;28;20412;-59
2023/02/26 12:53:43;;;;;;;2.35;0.90;;;2.60;99.90;;;;;;5099950;28;20418;-61
2023/02/26 12:56:29;;;;;;;1.63;1.00;;;2.50;99.90;;;;;;5101234;28;20416;-59
2023/02/26 12:59:07;;;;;;;2.65;0.80;;;2.70;99.90;;;;;;5102008;28;20404;-61
2023/02/26 13:01:45;;;;;;;2.03;0.95;;;2.70;99.90;;;;;;5101702;28;20419;-60
2023/02/26 13:04:46;;;;;;;1.40;0.80;;;2.80;99.90;;;;;;5099398;28;20416;-60
2023/02/26 13:07:41;;;;;;;3.03;1.10;;;3.10;99.90;;;;;;5106358;28;20406;-61
2023/02/26 13:10:15;;;;;;;2.35;0.85;;;3.10;99.90;;;;;;5110554;28;20447;-61
2023/02/26 13:12:48;;;;;;;2.15;0.98;;;3.20;99.90;;;;;;5114735;28;20876;-60
2023/02/26 13:15:36;;;;;;;3.35;1.00;;;3.30;99.90;;;;;;5103545;28;20435;-60